Time;durP1;ratioP1;P1;durP2;ratioP2;P2;SDS_P1;SDS_P2;PMS_P1;PMS_P2;Temp;Humidity;BMP_temperature;BMP_pressure;BME280_temperature;BME280_humidity;BME280_pressure;Samples;Min_cycle;Max_cycle;Signal;HPM_P1;HPM_P2
2024/03/13 00:01:53;;;;;;;2.40;1.45;;;10.60;99.90;;;;;;5020297;28;20025;-77
2024/03/13 00:04:19;;;;;;;3.85;1.77;;;10.60;99.90;;;;;;5032852;28;20138;-77
2024/03/13 00:06:46;;;;;;;1.70;1.60;;;10.60;99.90;;;;;;5059518;28;20615;-77
2024/03/13 00:09:15;;;;;;;1.70;1.60;;;10.60;99.90;;;;;;5061183;28;20025;-77
2024/03/13 00:11:41;;;;;;;1.67;1.58;;;10.60;99.90;;;;;;5057351;28;20027;-78
2024/03/13 00:14:08;;;;;;;2.05;1.67;;;10.60;99.90;;;;;;5048540;28;20025;-76
2024/03/13 00:16:33;;;;;;;1.67;1.50;;;10.60;99.90;;;;;;5065436;28;20417;-77
2024/03/13 00:18:59;;;;;;;1.83;1.67;;;10.60;99.90;;;;;;5062835;28;20025;-78
2024/03/13 00:21:31;;;;;;;1.85;1.42;;;10.70;99.90;;;;;;5043208;28;20515;-77
2024/03/13 00:23:57;;;;;;;;;;;10.70;99.90;;;;;;5057986;28;20500;-77
2024/03/13 00:26:24;;;;;;;2.00;1.52;;;10.70;99.90;;;;;;5059186;28;19931;-77
2024/03/13 00:28:50;;;;;;;1.75;1.65;;;10.70;99.90;;;;;;5040664;28;20033;-77
2024/03/13 00:31:17;;;;;;;2.78;1.70;;;10.70;99.90;;;;;;5061043;28;20023;-78
2024/03/13 00:33:44;;;;;;;4.28;1.58;;;10.60;1.00;;;;;;5060478;28;20021;-77
2024/03/13 00:36:10;;;;;;;1.27;1.20;;;10.50;1.00;;;;;;5057224;28;20021;-78
2024/03/13 00:38:36;;;;;;;2.63;1.58;;;10.30;1.00;;;;;;5033728;28;20028;-78
2024/03/13 00:41:02;;;;;;;2.10;1.23;;;10.30;1.00;;;;;;5061262;28;20495;-77
2024/03/13 00:43:30;;;;;;;1.50;1.40;;;10.30;1.00;;;;;;5050700;28;20027;-77
2024/03/13 00:45:59;;;;;;;1.75;1.30;;;10.30;1.00;;;;;;5060843;28;20063;-77
2024/03/13 00:48:31;;;;;;;2.45;1.67;;;10.30;1.00;;;;;;5043563;28;20028;-77
2024/03/13 00:51:00;;;;;;;1.15;1.15;;;10.20;1.00;;;;;;5043484;28;20029;-79
2024/03/13 00:53:27;;;;;;;1.60;1.50;;;10.20;1.00;;;;;;5060491;28;20095;-79
2024/03/13 00:55:54;;;;;;;4.20;1.30;;;10.20;1.00;;;;;;5060098;28;20031;-79
2024/03/13 00:58:21;;;;;;;2.55;1.48;;;10.30;1.00;;;;;;5043830;28;20297;-78
2024/03/13 01:00:48;;;;;;;4.72;1.83;;;10.30;1.00;;;;;;5060000;28;20031;-78
2024/03/13 01:03:14;;;;;;;2.35;1.63;;;10.30;1.00;;;;;;5037403;28;20392;-78
2024/03/13 01:05:43;;;;;;;3.35;1.70;;;10.40;1.00;;;;;;5056957;28;20044;-78
2024/03/13 01:08:09;;;;;;;2.53;1.77;;;10.40;99.90;;;;;;5060461;28;20028;-78
2024/03/13 01:10:35;;;;;;;1.95;1.67;;;10.50;99.90;;;;;;5047303;28;20029;-78
2024/03/13 01:13:00;;;;;;;3.00;1.60;;;10.50;99.90;;;;;;5060766;28;20025;-79
2024/03/13 01:15:27;;;;;;;1.70;1.60;;;10.40;1.00;;;;;;5059033;28;20392;-78
2024/03/13 01:17:53;;;;;;;1.60;1.50;;;10.30;1.00;;;;;;5050024;28;20099;-77
2024/03/13 01:20:19;;;;;;;1.80;1.70;;;10.30;1.00;;;;;;5059726;28;20078;-79
2024/03/13 01:22:48;;;;;;;2.30;1.60;;;10.30;1.00;;;;;;5047664;28;20039;-78
2024/03/13 01:25:14;;;;;;;1.92;1.55;;;10.30;1.00;;;;;;5048278;28;20025;-79
2024/03/13 01:27:42;;;;;;;1.58;1.48;;;10.30;1.00;;;;;;5039936;28;20534;-78
2024/03/13 01:30:09;;;;;;;2.85;1.70;;;10.20;1.00;;;;;;5059622;28;20074;-78
2024/03/13 01:32:35;;;;;;;2.10;1.90;;;10.20;1.00;;;;;;5040759;28;20024;-78
2024/03/13 01:35:01;;;;;;;1.63;1.52;;;10.20;1.00;;;;;;5059868;28;20032;-78
2024/03/13 01:40:18;;;;;;;3.95;1.70;;;10.20;1.00;;;;;;5059570;28;20118;-78
2024/03/13 01:57:16;;;;;;;2.10;1.77;;;9.90;1.00;;;;;;5057139;28;20171;-77
2024/03/13 02:02:37;;;;;;;3.78;1.75;;;9.90;1.00;;;;;;4971423;28;20585;-78
2024/03/13 02:05:03;;;;;;;2.83;1.55;;;9.90;1.00;;;;;;5058410;28;20045;-78
2024/03/13 02:07:29;;;;;;;1.63;1.52;;;9.90;1.00;;;;;;5056554;28;20042;-79
2024/03/13 02:09:56;;;;;;;1.67;1.58;;;9.90;1.00;;;;;;5058082;28;20048;-78
2024/03/13 02:12:21;;;;;;;1.50;1.40;;;9.80;1.00;;;;;;5041282;28;20322;-78
2024/03/13 02:14:47;;;;;;;2.33;1.55;;;9.80;1.60;;;;;;5062466;28;20484;-78
2024/03/13 02:17:13;;;;;;;1.52;1.20;;;9.80;1.00;;;;;;5052245;28;20025;-78
2024/03/13 02:19:43;;;;;;;1.60;1.50;;;9.80;1.00;;;;;;5054756;28;20050;-78
2024/03/13 02:22:12;;;;;;;1.40;1.30;;;9.80;1.00;;;;;;5062639;28;20056;-78
2024/03/13 02:24:37;;;;;;;2.47;1.40;;;9.90;1.00;;;;;;5034666;28;20626;-78
2024/03/13 02:27:11;;;;;;;1.48;1.38;;;9.90;1.00;;;;;;5036304;28;20025;-78
2024/03/13 02:29:42;;;;;;;1.35;1.35;;;9.90;1.00;;;;;;5060514;28;20380;-78
2024/03/13 02:32:09;;;;;;;2.08;1.80;;;9.90;1.00;;;;;;5046120;28;20031;-78
2024/03/13 02:34:35;;;;;;;1.80;1.30;;;9.90;1.00;;;;;;5063391;28;20025;-78
2024/03/13 02:37:04;;;;;;;1.10;1.10;;;9.90;1.00;;;;;;5057334;28;20392;-78
2024/03/13 02:39:29;;;;;;;2.15;1.50;;;9.90;1.00;;;;;;5041952;28;20342;-78
2024/03/13 02:41:56;;;;;;;1.50;1.40;;;9.90;1.00;;;;;;5063593;28;20044;-78
2024/03/13 02:44:21;;;;;;;2.08;1.27;;;9.90;1.00;;;;;;5066113;28;20477;-78
2024/03/13 02:46:47;;;;;;;1.33;1.23;;;9.80;1.00;;;;;;5064887;28;20050;-78
2024/03/13 02:49:16;;;;;;;1.60;1.30;;;9.90;1.00;;;;;;5065203;28;20028;-78
2024/03/13 02:51:45;;;;;;;2.92;1.30;;;9.90;1.00;;;;;;5064614;28;20033;-78
2024/03/13 02:54:10;;;;;;;1.83;1.50;;;9.80;1.00;;;;;;5046767;28;20025;-78
2024/03/13 02:56:36;;;;;;;1.60;1.27;;;9.70;8.30;;;;;;5069008;28;20097;-78
2024/03/13 02:59:02;;;;;;;1.50;1.40;;;9.70;4.30;;;;;;5045856;28;20404;-78
2024/03/13 03:01:27;;;;;;;1.85;1.40;;;9.70;1.00;;;;;;5065423;28;20082;-78
2024/03/13 03:03:53;;;;;;;2.00;1.45;;;9.70;1.00;;;;;;5053461;28;20041;-78
2024/03/13 03:06:19;;;;;;;1.10;1.10;;;9.70;1.00;;;;;;5056281;28;20032;-78
2024/03/13 03:08:44;;;;;;;1.67;1.20;;;9.80;1.00;;;;;;5061989;28;20025;-78
2024/03/13 03:11:10;;;;;;;7.75;1.40;;;9.80;1.00;;;;;;5062481;28;20479;-78
2024/03/13 03:13:39;;;;;;;3.42;1.20;;;9.80;1.00;;;;;;5047573;28;20036;-78
2024/03/13 03:16:08;;;;;;;0.93;0.90;;;9.90;1.00;;;;;;5054439;28;20032;-78
2024/03/13 03:18:34;;;;;;;1.25;1.02;;;9.80;1.00;;;;;;5047428;28;20029;-78
2024/03/13 03:21:00;;;;;;;1.10;1.10;;;9.90;1.00;;;;;;5064262;28;20108;-78
2024/03/13 03:23:25;;;;;;;1.50;1.10;;;9.90;1.00;;;;;;5055092;28;20529;-78
2024/03/13 03:25:51;;;;;;;1.58;1.33;;;9.90;1.00;;;;;;5053658;28;20028;-78
2024/03/13 03:28:17;;;;;;;1.10;1.00;;;9.90;1.00;;;;;;5063901;28;20068;-78
2024/03/13 03:30:46;;;;;;;1.00;1.00;;;9.90;1.00;;;;;;5063934;28;20027;-78
2024/03/13 03:33:13;;;;;;;0.70;0.70;;;9.90;1.00;;;;;;5063405;28;20028;-78
2024/03/13 03:35:39;;;;;;;0.82;0.82;;;9.90;1.00;;;;;;5063645;28;20021;-78
2024/03/13 03:38:05;;;;;;;1.02;0.90;;;9.90;1.00;;;;;;5061729;28;20025;-78
2024/03/13 03:40:34;;;;;;;0.95;0.88;;;9.90;99.90;;;;;;5062644;28;20029;-78
2024/03/13 03:43:04;;;;;;;1.25;1.02;;;9.90;1.00;;;;;;5064054;28;20040;-78
2024/03/13 03:45:30;;;;;;;2.15;1.00;;;9.90;99.90;;;;;;5062968;28;20396;-78
2024/03/13 03:47:56;;;;;;;1.00;0.90;;;9.90;99.90;;;;;;5063772;28;20028;-78
2024/03/13 03:50:21;;;;;;;2.70;0.80;;;9.90;99.90;;;;;;5065292;28;20033;-78
2024/03/13 03:52:48;;;;;;;2.17;0.90;;;10.00;99.90;;;;;;5061661;28;20070;-78
2024/03/13 03:55:14;;;;;;;0.90;0.90;;;10.00;99.90;;;;;;5065184;28;20020;-78
2024/03/13 03:57:40;;;;;;;1.70;0.80;;;10.00;99.90;;;;;;5061585;28;20075;-78
2024/03/13 04:00:11;;;;;;;1.55;0.90;;;10.00;99.90;;;;;;5064809;28;20020;-78
2024/03/13 04:02:37;;;;;;;1.95;0.73;;;10.00;99.90;;;;;;5061411;28;20029;-78
2024/03/13 04:05:06;;;;;;;1.27;1.10;;;10.10;99.90;;;;;;5061045;28;20053;-78
2024/03/13 04:07:32;;;;;;;0.90;0.80;;;10.10;99.90;;;;;;5061224;28;20032;-78
2024/03/13 04:09:58;;;;;;;0.73;0.70;;;10.10;99.90;;;;;;5065187;28;20025;-78
2024/03/13 04:12:27;;;;;;;3.55;1.20;;;10.10;99.90;;;;;;5054182;28;20599;-78
2024/03/13 04:14:53;;;;;;;0.90;0.90;;;10.10;99.90;;;;;;5061513;28;20542;-78
2024/03/13 04:17:20;;;;;;;0.85;0.70;;;10.20;99.90;;;;;;5054294;28;20029;-78
2024/03/13 04:19:45;;;;;;;0.90;0.60;;;10.20;99.90;;;;;;5054464;28;20120;-78
2024/03/13 04:22:13;;;;;;;0.70;0.70;;;10.20;99.90;;;;;;5044089;28;20108;-78
2024/03/13 04:24:39;;;;;;;3.28;0.75;;;10.20;99.90;;;;;;5060967;28;20028;-78
2024/03/13 04:27:08;;;;;;;0.80;0.80;;;10.20;99.90;;;;;;5060802;28;20094;-78
2024/03/13 04:29:37;;;;;;;1.60;0.85;;;10.20;99.90;;;;;;5052499;28;20063;-78
2024/03/13 04:32:04;;;;;;;1.27;0.85;;;10.20;99.90;;;;;;5064576;28;20056;-78
2024/03/13 04:34:30;;;;;;;2.30;0.70;;;10.20;99.90;;;;;;5059708;28;20056;-78
2024/03/13 04:36:56;;;;;;;0.55;0.55;;;10.20;98.10;;;;;;5064094;28;20017;-78
2024/03/13 04:39:21;;;;;;;3.60;0.90;;;10.20;99.90;;;;;;5053247;28;20024;-78
2024/03/13 04:41:49;;;;;;;0.77;0.70;;;10.20;87.60;;;;;;5064605;28;20029;-78
2024/03/13 04:44:16;;;;;;;0.80;0.80;;;10.20;86.40;;;;;;5061377;28;20027;-78
2024/03/13 04:46:43;;;;;;;1.15;0.90;;;10.20;99.90;;;;;;5064095;28;20118;-78
2024/03/13 04:49:11;;;;;;;2.65;1.08;;;10.20;60.00;;;;;;5054122;28;20035;-78
2024/03/13 04:51:40;;;;;;;0.80;0.80;;;10.10;99.90;;;;;;5059109;28;20037;-78
2024/03/13 04:54:08;;;;;;;1.27;0.95;;;10.10;59.80;;;;;;5063512;28;20097;-78
2024/03/13 04:56:34;;;;;;;1.02;0.93;;;10.10;52.50;;;;;;5051289;28;20423;-78
2024/03/13 04:59:00;;;;;;;1.65;0.88;;;10.10;97.10;;;;;;5062779;28;20024;-78
2024/03/13 05:01:26;;;;;;;1.00;1.00;;;10.10;98.80;;;;;;5060125;28;20108;-78
2024/03/13 05:03:51;;;;;;;1.45;0.90;;;10.10;99.90;;;;;;5049677;28;20056;-78
2024/03/13 05:06:20;;;;;;;1.05;1.02;;;10.10;99.90;;;;;;5050592;28;20074;-78
2024/03/13 05:08:47;;;;;;;1.48;1.10;;;10.00;99.90;;;;;;5064265;28;20035;-78
2024/03/13 05:11:14;;;;;;;2.00;1.00;;;10.00;99.90;;;;;;5062825;28;20456;-78
2024/03/13 05:13:40;;;;;;;1.20;1.15;;;10.00;99.90;;;;;;5060450;28;20095;-78
2024/03/13 05:16:09;;;;;;;3.42;1.17;;;9.90;99.90;;;;;;5062578;28;20469;-78
2024/03/13 05:18:35;;;;;;;2.90;0.93;;;9.90;99.90;;;;;;5050840;28;20476;-78
2024/03/13 05:21:01;;;;;;;3.00;1.25;;;9.90;99.90;;;;;;5063771;28;20317;-78
2024/03/13 05:23:27;;;;;;;5.60;1.90;;;9.90;77.20;;;;;;5061869;28;20033;-78
2024/03/13 05:25:55;;;;;;;3.13;1.48;;;9.90;99.90;;;;;;5043523;28;20035;-78
2024/03/13 05:28:21;;;;;;;3.55;1.55;;;10.00;11.30;;;;;;5051993;28;20029;-78
2024/03/13 05:30:47;;;;;;;2.35;1.88;;;10.00;32.60;;;;;;5061563;28;20027;-78
2024/03/13 05:33:14;;;;;;;1.30;1.20;;;10.00;99.90;;;;;;5060914;28;20043;-78
2024/03/13 05:35:40;;;;;;;1.75;1.50;;;10.00;99.90;;;;;;5044235;28;20031;-78
2024/03/13 05:38:06;;;;;;;1.77;1.65;;;10.00;68.70;;;;;;5060253;28;20036;-78
2024/03/13 05:40:32;;;;;;;6.55;1.73;;;10.00;99.90;;;;;;5062643;28;20067;-78
2024/03/13 05:42:58;;;;;;;1.33;1.23;;;10.00;33.70;;;;;;5041693;28;20522;-78
2024/03/13 05:45:24;;;;;;;1.30;1.23;;;10.00;1.00;;;;;;5053294;28;20495;-78
2024/03/13 05:47:50;;;;;;;1.92;1.60;;;10.00;26.90;;;;;;5059600;28;20025;-78
2024/03/13 05:50:18;;;;;;;1.60;1.45;;;10.00;1.00;;;;;;5063464;28;20025;-78
2024/03/13 05:52:47;;;;;;;3.03;1.52;;;10.00;1.00;;;;;;5062822;28;20349;-78
2024/03/13 05:55:14;;;;;;;2.08;1.48;;;10.00;1.00;;;;;;5053236;28;20017;-78
2024/03/13 05:57:40;;;;;;;1.70;1.60;;;10.00;1.00;;;;;;5059875;28;20171;-78
2024/03/13 06:00:13;;;;;;;5.90;1.55;;;10.00;99.90;;;;;;5044224;28;20115;-78
2024/03/13 06:02:41;;;;;;;1.58;1.48;;;10.00;99.90;;;;;;5060625;28;20021;-78
2024/03/13 06:05:14;;;;;;;1.50;1.40;;;10.10;99.90;;;;;;5063455;28;20500;-78
2024/03/13 06:07:40;;;;;;;2.22;2.03;;;10.10;99.90;;;;;;5044540;28;20398;-78
2024/03/13 06:10:08;;;;;;;3.17;1.52;;;10.10;99.90;;;;;;5052950;28;20029;-78
2024/03/13 06:12:34;;;;;;;1.83;1.73;;;10.10;99.90;;;;;;5064265;28;20017;-78
2024/03/13 06:15:06;;;;;;;2.88;1.83;;;10.10;99.90;;;;;;5054085;28;20041;-78
2024/03/13 06:17:33;;;;;;;1.50;1.35;;;10.20;99.90;;;;;;5063240;28;20021;-78
2024/03/13 06:20:17;;;;;;;1.55;1.50;;;10.20;99.90;;;;;;5072890;28;20028;-78
2024/03/13 06:22:43;;;;;;;1.88;1.60;;;10.20;99.90;;;;;;5050553;28;20031;-78
2024/03/13 06:25:09;;;;;;;1.77;1.67;;;10.20;1.00;;;;;;5068638;28;20025;-78
2024/03/13 06:27:36;;;;;;;1.70;1.60;;;10.20;1.00;;;;;;5066530;28;20115;-78
2024/03/13 06:30:03;;;;;;;2.35;1.33;;;10.20;1.00;;;;;;5065454;28;20459;-78
2024/03/13 06:32:28;;;;;;;2.75;1.88;;;10.20;1.00;;;;;;5055899;28;20400;-78
2024/03/13 06:35:02;;;;;;;2.20;1.67;;;10.30;1.00;;;;;;5045169;28;20028;-78
2024/03/13 06:37:29;;;;;;;6.45;2.15;;;10.30;99.90;;;;;;5055413;28;20453;-78
2024/03/13 06:39:57;;;;;;;4.18;1.88;;;10.30;99.90;;;;;;5063810;28;20487;-78
2024/03/13 06:42:26;;;;;;;3.75;1.80;;;10.40;1.00;;;;;;5065446;28;20020;-76
2024/03/13 06:44:52;;;;;;;3.47;1.55;;;10.40;1.00;;;;;;5063909;28;20079;-78
2024/03/13 06:47:18;;;;;;;3.08;1.85;;;10.40;99.90;;;;;;5046901;28;20326;-78
2024/03/13 06:49:44;;;;;;;2.75;2.05;;;10.50;99.90;;;;;;5055533;28;20115;-78
2024/03/13 06:52:13;;;;;;;1.58;1.40;;;10.50;99.90;;;;;;5062653;28;20108;-78
2024/03/13 06:54:40;;;;;;;2.00;1.67;;;10.50;99.90;;;;;;5065487;28;20063;-78
2024/03/13 06:57:06;;;;;;;3.28;1.80;;;10.50;99.90;;;;;;5062661;28;20017;-78
2024/03/13 06:59:36;;;;;;;1.85;1.75;;;10.50;1.00;;;;;;5065894;28;20025;-78
2024/03/13 07:02:02;;;;;;;2.50;2.13;;;10.60;99.90;;;;;;5062084;28;20503;-78
2024/03/13 07:04:29;;;;;;;3.05;2.38;;;10.60;51.90;;;;;;5061662;28;20219;-78
2024/03/13 07:07:00;;;;;;;4.03;2.80;;;10.60;40.90;;;;;;5065635;28;20368;-78
2024/03/13 07:09:29;;;;;;;6.93;4.47;;;10.60;99.90;;;;;;5062042;28;20030;-78
2024/03/13 07:11:55;;;;;;;10.82;4.80;;;10.60;99.90;;;;;;5048710;28;20056;-78
2024/03/13 07:14:21;;;;;;;16.65;6.10;;;10.60;99.90;;;;;;5043676;28;20036;-78
2024/03/13 07:16:47;;;;;;;14.88;6.40;;;10.60;1.00;;;;;;5065292;28;20016;-78
2024/03/13 07:19:13;;;;;;;11.45;7.03;;;10.50;1.00;;;;;;5064567;28;20396;-78
2024/03/13 07:21:40;;;;;;;9.93;7.28;;;10.50;1.00;;;;;;5064744;28;20036;-78
2024/03/13 07:24:06;;;;;;;10.63;7.10;;;10.50;1.00;;;;;;5054840;28;20484;-78
2024/03/13 07:26:32;;;;;;;13.15;7.13;;;10.40;1.00;;;;;;5064362;28;20079;-78
2024/03/13 07:29:01;;;;;;;12.25;6.95;;;10.50;1.00;;;;;;5063322;28;20391;-78
2024/03/13 07:31:30;;;;;;;12.70;8.23;;;10.50;1.00;;;;;;5063907;28;20033;-78
2024/03/13 07:33:56;;;;;;;13.63;7.57;;;10.50;1.00;;;;;;5059108;28;20481;-78
2024/03/13 07:36:22;;;;;;;11.70;7.82;;;10.60;1.00;;;;;;5063705;28;20033;-78
2024/03/13 07:38:49;;;;;;;10.13;7.72;;;10.60;1.00;;;;;;5063709;28;20017;-78
2024/03/13 07:41:15;;;;;;;14.10;9.13;;;10.60;1.00;;;;;;5063035;28;20071;-78
2024/03/13 07:43:42;;;;;;;17.45;11.10;;;10.60;1.00;;;;;;5064758;28;20055;-78
2024/03/13 07:46:09;;;;;;;19.02;12.10;;;10.70;1.00;;;;;;5052125;28;20021;-78
2024/03/13 07:48:36;;;;;;;24.90;13.45;;;10.60;1.00;;;;;;5062525;28;20052;-78
2024/03/13 07:51:03;;;;;;;21.40;14.05;;;10.70;1.00;;;;;;5054406;28;20058;-78
2024/03/13 07:53:30;;;;;;;20.20;14.57;;;10.70;1.00;;;;;;5060528;28;20044;-78
2024/03/13 07:55:56;;;;;;;27.58;16.92;;;10.80;1.00;;;;;;5046712;28;20550;-78
2024/03/13 07:58:21;;;;;;;28.08;18.95;;;10.80;1.00;;;;;;5048255;28;20021;-79
2024/03/13 08:00:47;;;;;;;30.42;20.08;;;10.80;1.00;;;;;;5058239;28;20025;-79
2024/03/13 08:03:13;;;;;;;31.60;20.80;;;10.90;1.00;;;;;;5060504;28;20550;-79
2024/03/13 08:05:39;;;;;;;23.80;18.08;;;10.90;1.00;;;;;;5051635;28;20045;-77
2024/03/13 08:08:05;;;;;;;31.55;21.13;;;10.90;1.00;;;;;;5058607;28;20206;-78
2024/03/13 08:10:31;;;;;;;34.35;23.38;;;11.00;1.00;;;;;;5040034;28;20025;-78
2024/03/13 08:12:56;;;;;;;35.85;23.20;;;11.10;6.30;;;;;;5059155;28;20044;-79
2024/03/13 08:15:23;;;;;;;33.70;23.67;;;11.10;7.60;;;;;;5059699;28;20021;-79
2024/03/13 08:17:48;;;;;;;42.50;24.38;;;11.00;2.00;;;;;;5041592;28;20021;-79
2024/03/13 08:20:14;;;;;;;37.33;23.58;;;11.10;1.00;;;;;;5060433;28;20021;-79
2024/03/13 08:22:43;;;;;;;32.80;21.92;;;11.20;1.00;;;;;;5046905;28;20035;-79
2024/03/13 08:25:16;;;;;;;35.22;23.65;;;11.20;1.00;;;;;;5042371;28;20097;-79
2024/03/13 08:27:44;;;;;;;;;;;11.20;1.00;;;;;;5059342;28;20078;-80
2024/03/13 08:30:10;;;;;;;39.08;26.05;;;11.20;1.00;;;;;;5059758;28;20002;-79
2024/03/13 08:32:37;;;;;;;35.97;22.92;;;11.20;1.00;;;;;;5058596;28;20111;-80
2024/03/13 08:35:04;;;;;;;32.42;22.73;;;11.30;1.00;;;;;;5042906;28;20541;-79
2024/03/13 08:37:32;;;;;;;28.67;21.00;;;11.30;1.50;;;;;;5049958;28;20072;-80
2024/03/13 08:40:00;;;;;;;45.03;26.15;;;11.30;2.00;;;;;;5050308;28;20020;-78
2024/03/13 08:42:27;;;;;;;42.53;26.85;;;11.40;1.50;;;;;;5047775;28;20484;-77
2024/03/13 08:44:53;;;;;;;39.00;25.70;;;11.40;1.00;;;;;;5050778;28;20067;-79
2024/03/13 08:47:18;;;;;;;40.45;26.67;;;11.50;10.00;;;;;;5060674;28;20029;-79
2024/03/13 08:49:45;;;;;;;35.63;24.60;;;11.50;22.10;;;;;;5060577;28;20032;-79
2024/03/13 08:52:12;;;;;;;35.30;23.45;;;11.60;8.10;;;;;;5057093;28;20029;-78
2024/03/13 08:54:38;;;;;;;38.55;24.27;;;11.60;2.10;;;;;;5054811;28;20028;-79
2024/03/13 08:57:04;;;;;;;34.53;23.80;;;11.60;1.00;;;;;;5054826;28;20104;-79
2024/03/13 08:59:30;;;;;;;33.20;24.42;;;11.60;1.00;;;;;;5058310;28;20097;-79
2024/03/13 09:01:56;;;;;;;29.75;22.38;;;11.70;1.00;;;;;;5069617;28;20024;-78
2024/03/13 09:04:23;;;;;;;29.30;21.25;;;11.70;1.00;;;;;;5046866;28;20052;-80
2024/03/13 09:06:49;;;;;;;33.20;21.65;;;11.70;1.00;;;;;;5066916;28;20024;-78
2024/03/13 09:09:33;;;;;;;33.53;22.85;;;11.80;1.00;;;;;;5052322;28;20033;-79
2024/03/13 09:11:59;;;;;;;32.33;23.27;;;11.80;1.00;;;;;;5035304;28;20036;-79
2024/03/13 09:14:26;;;;;;;32.60;21.98;;;11.80;1.00;;;;;;5055445;28;20520;-79
2024/03/13 09:16:52;;;;;;;29.65;21.85;;;11.80;1.00;;;;;;5054931;28;20480;-79
2024/03/13 09:19:21;;;;;;;33.38;22.15;;;11.80;1.00;;;;;;5072845;28;20027;-79
2024/03/13 09:21:50;;;;;;;35.55;22.38;;;11.90;1.00;;;;;;5054803;28;20035;-79
2024/03/13 09:24:16;;;;;;;38.55;24.60;;;12.00;22.90;;;;;;5072896;28;20020;-79
2024/03/13 09:26:42;;;;;;;33.03;23.38;;;12.10;26.50;;;;;;5039654;28;20506;-79
2024/03/13 09:29:07;;;;;;;38.25;23.80;;;12.10;21.70;;;;;;5055538;28;20099;-79
2024/03/13 09:31:39;;;;;;;36.42;24.80;;;12.20;45.40;;;;;;5054722;28;20056;-79
2024/03/13 09:34:05;;;;;;;;;;;12.20;40.90;;;;;;5055214;28;20047;-79
2024/03/13 09:36:37;;;;;;;43.78;28.08;;;12.20;39.70;;;;;;5065461;28;20352;-79
2024/03/13 09:39:06;;;;;;;43.88;29.13;;;12.20;23.60;;;;;;5053297;28;20700;-79
2024/03/13 09:41:32;;;;;;;46.63;31.00;;;12.30;26.40;;;;;;5042163;28;20050;-79
2024/03/13 09:43:59;;;;;;;58.08;34.58;;;12.30;33.50;;;;;;5062496;28;20428;-79
2024/03/13 09:46:28;;;;;;;67.82;38.85;;;12.40;62.30;;;;;;5059890;28;20308;-79
2024/03/13 09:48:59;;;;;;;65.20;39.95;;;12.40;71.20;;;;;;5062308;28;20168;-79
2024/03/13 09:51:28;;;;;;;63.08;40.50;;;12.40;84.70;;;;;;5062571;28;20028;-79
2024/03/13 09:53:54;;;;;;;59.15;36.55;;;12.40;78.30;;;;;;5059899;28;20526;-79
2024/03/13 09:56:25;;;;;;;58.45;36.88;;;12.40;71.10;;;;;;5050437;28;20021;-79
2024/03/13 09:58:52;;;;;;;56.85;33.80;;;12.40;66.00;;;;;;5062728;28;20025;-79
2024/03/13 10:01:26;;;;;;;57.30;33.78;;;12.40;73.20;;;;;;5059828;28;20013;-79
2024/03/13 10:04:10;;;;;;;50.17;33.22;;;12.50;56.20;;;;;;5041087;28;20428;-79
2024/03/13 10:06:41;;;;;;;59.80;30.02;;;12.50;46.40;;;;;;5045443;28;20021;-79
2024/03/13 10:09:14;;;;;;;50.40;29.45;;;12.60;45.20;;;;;;5061670;28;20108;-79
2024/03/13 10:11:45;;;;;;;48.05;29.40;;;12.60;43.50;;;;;;5059734;28;20472;-79
2024/03/13 10:14:12;;;;;;;47.53;30.58;;;12.70;18.10;;;;;;5062844;28;20047;-79
2024/03/13 10:16:42;;;;;;;38.58;26.30;;;12.70;18.80;;;;;;5049955;28;20163;-79
2024/03/13 10:19:17;;;;;;;49.95;31.23;;;12.80;28.00;;;;;;5062679;28;20487;-79
2024/03/13 10:21:44;;;;;;;44.95;29.33;;;12.80;26.80;;;;;;5041704;28;20017;-79
2024/03/13 10:24:13;;;;;;;34.00;24.35;;;12.90;6.00;;;;;;5062621;28;20033;-79
2024/03/13 10:26:42;;;;;;;34.72;23.55;;;12.90;1.00;;;;;;5061339;28;20112;-79
2024/03/13 10:29:10;;;;;;;35.60;22.98;;;13.00;1.00;;;;;;5062386;28;20029;-79
2024/03/13 10:31:38;;;;;;;38.75;23.05;;;13.00;1.00;;;;;;5045111;28;20031;-79
2024/03/13 10:34:04;;;;;;;41.35;22.63;;;13.10;1.00;;;;;;5059924;28;20013;-79
2024/03/13 10:36:29;;;;;;;36.42;20.75;;;13.10;1.00;;;;;;5045257;28;20142;-79
2024/03/13 10:39:08;;;;;;;30.40;18.05;;;13.20;1.00;;;;;;5058965;28;20100;-79
2024/03/13 10:41:34;;;;;;;30.50;20.17;;;13.30;1.00;;;;;;5042073;28;20083;-79
2024/03/13 10:44:00;;;;;;;27.42;18.27;;;13.30;99.90;;;;;;5062037;28;20020;-79
2024/03/13 10:46:26;;;;;;;30.88;18.13;;;13.30;99.90;;;;;;5059427;28;20040;-79
2024/03/13 10:48:52;;;;;;;26.65;16.83;;;13.40;99.90;;;;;;5062594;28;20487;-79
2024/03/13 10:51:18;;;;;;;31.65;15.98;;;13.40;99.90;;;;;;5049146;28;20024;-79
2024/03/13 10:53:45;;;;;;;28.45;16.27;;;13.50;99.90;;;;;;5062439;28;20017;-79
2024/03/13 10:56:14;;;;;;;31.58;19.88;;;13.40;99.90;;;;;;5059171;28;20443;-79
2024/03/13 10:58:42;;;;;;;39.92;20.42;;;13.40;99.90;;;;;;5065379;28;20021;-79
2024/03/13 11:01:16;;;;;;;35.20;18.98;;;13.50;1.00;;;;;;5044463;28;20116;-79
2024/03/13 11:03:46;;;;;;;38.35;23.15;;;13.50;1.00;;;;;;5047746;28;20104;-79
2024/03/13 11:06:14;;;;;;;43.67;21.35;;;13.50;1.00;;;;;;5044754;28;20021;-79
2024/03/13 11:08:43;;;;;;;46.20;26.27;;;13.50;1.00;;;;;;5065483;28;20017;-79
2024/03/13 11:11:13;;;;;;;38.50;23.02;;;13.60;1.00;;;;;;5062471;28;20033;-79
2024/03/13 11:13:44;;;;;;;43.25;24.73;;;13.80;1.00;;;;;;5065132;28;20025;-79
2024/03/13 11:16:11;;;;;;;54.38;25.95;;;13.90;99.90;;;;;;5045139;28;20021;-79
2024/03/13 11:18:42;;;;;;;44.70;24.80;;;14.00;1.00;;;;;;5064918;28;20137;-79
2024/03/13 11:21:12;;;;;;;40.05;25.15;;;14.10;1.00;;;;;;5053572;28;20029;-79
2024/03/13 11:23:51;;;;;;;40.97;24.05;;;14.30;1.00;;;;;;5046212;28;20104;-79
2024/03/13 11:26:20;;;;;;;42.92;26.42;;;14.40;1.00;;;;;;5063784;28;20028;-79
2024/03/13 11:28:46;;;;;;;38.08;25.95;;;14.50;1.00;;;;;;5049788;28;20471;-77
2024/03/13 11:31:13;;;;;;;45.47;27.58;;;14.70;1.00;;;;;;5055014;28;20404;-77
2024/03/13 11:33:41;;;;;;;44.13;27.45;;;14.80;1.00;;;;;;5052966;28;20433;-79
2024/03/13 11:36:09;;;;;;;34.78;21.80;;;14.80;1.00;;;;;;5064449;28;20052;-79
2024/03/13 11:38:36;;;;;;;41.22;22.60;;;14.90;99.90;;;;;;5052963;28;20083;-79
2024/03/13 11:41:04;;;;;;;49.65;27.88;;;15.00;99.90;;;;;;5064173;28;20047;-79
2024/03/13 11:43:32;;;;;;;47.03;27.02;;;15.10;99.90;;;;;;5062665;28;20029;-79
2024/03/13 11:45:59;;;;;;;40.10;24.05;;;15.20;1.00;;;;;;5065811;28;20029;-79
2024/03/13 11:48:25;;;;;;;32.40;19.70;;;15.30;99.90;;;;;;5063700;28;20029;-79
2024/03/13 11:51:00;;;;;;;29.42;19.00;;;15.50;99.90;;;;;;5063336;28;20028;-79
2024/03/13 11:53:31;;;;;;;32.15;19.30;;;15.40;22.70;;;;;;5064109;28;20120;-79
2024/03/13 11:55:59;;;;;;;29.90;19.67;;;15.50;42.80;;;;;;5061869;28;20472;-79
2024/03/13 11:58:27;;;;;;;32.28;19.50;;;15.60;99.90;;;;;;5064533;28;20025;-79
2024/03/13 12:00:54;;;;;;;29.77;18.25;;;15.80;99.90;;;;;;5050674;28;20028;-79
2024/03/13 12:03:20;;;;;;;35.58;19.77;;;15.90;1.00;;;;;;5061165;28;20029;-79
2024/03/13 12:05:46;;;;;;;30.73;19.25;;;15.90;99.90;;;;;;5063384;28;20461;-79
2024/03/13 12:08:19;;;;;;;29.88;17.85;;;16.00;99.90;;;;;;5062984;28;20488;-79
2024/03/13 12:10:51;;;;;;;35.83;21.60;;;16.10;1.00;;;;;;5060615;28;20020;-79
2024/03/13 12:13:19;;;;;;;34.83;21.25;;;16.00;99.90;;;;;;5064821;28;20032;-79
2024/03/13 12:15:46;;;;;;;32.03;18.67;;;16.00;99.90;;;;;;5061071;28;20385;-79
2024/03/13 12:18:12;;;;;;;32.63;19.63;;;16.10;1.00;;;;;;5064226;28;20027;-79
2024/03/13 12:20:45;;;;;;;38.53;21.70;;;16.30;99.90;;;;;;5064466;28;20058;-79
2024/03/13 12:23:13;;;;;;;30.25;18.52;;;16.30;99.90;;;;;;5060702;28;20037;-79
2024/03/13 12:25:40;;;;;;;33.10;21.08;;;16.30;99.90;;;;;;5042793;28;20036;-79
2024/03/13 12:28:16;;;;;;;32.28;20.10;;;16.40;99.90;;;;;;5046208;28;20029;-79
2024/03/13 12:30:44;;;;;;;31.52;20.67;;;16.40;99.90;;;;;;5063891;28;20016;-80
2024/03/13 12:33:14;;;;;;;32.80;20.88;;;16.40;99.90;;;;;;5054613;28;20021;-79
2024/03/13 12:35:40;;;;;;;37.05;20.52;;;16.40;99.90;;;;;;5063584;28;20391;-79
2024/03/13 12:38:09;;;;;;;36.88;21.15;;;16.30;99.90;;;;;;5060899;28;20028;-79
2024/03/13 12:40:35;;;;;;;33.53;20.65;;;16.40;99.90;;;;;;5045809;28;20029;-79
2024/03/13 12:43:04;;;;;;;36.38;20.77;;;16.60;1.00;;;;;;5060374;28;20025;-79
2024/03/13 12:45:31;;;;;;;31.58;20.60;;;16.70;99.90;;;;;;5060676;28;20151;-79
2024/03/13 12:47:57;;;;;;;29.75;20.10;;;16.80;1.00;;;;;;5045791;28;20017;-79
2024/03/13 12:50:24;;;;;;;28.65;18.70;;;16.80;99.90;;;;;;5050759;28;20086;-79
2024/03/13 12:52:51;;;;;;;25.80;18.08;;;16.80;99.90;;;;;;5060224;28;20028;-77
2024/03/13 12:55:20;;;;;;;32.40;19.88;;;16.80;99.90;;;;;;5063692;28;20028;-79
2024/03/13 12:57:49;;;;;;;35.88;20.75;;;16.90;1.00;;;;;;5060485;28;20555;-79
2024/03/13 13:00:18;;;;;;;34.40;20.77;;;17.00;99.90;;;;;;5060227;28;20025;-79
2024/03/13 13:02:51;;;;;;;32.90;19.27;;;17.00;99.90;;;;;;5060127;28;20488;-79
2024/03/13 13:05:17;;;;;;;31.73;20.35;;;17.10;99.90;;;;;;5060324;28;20132;-77
2024/03/13 13:07:59;;;;;;;23.92;17.30;;;17.20;99.90;;;;;;5063808;28;20594;-77